createdAt,value
2023-05-07T00:01:20.253Z,16.73
2023-05-07T00:04:08.607Z,16.73
2023-05-07T00:06:56.704Z,16.75
2023-05-07T00:09:44.283Z,16.37
2023-05-07T00:12:34.654Z,16.60
2023-05-07T00:15:22.294Z,16.43
2023-05-07T00:18:09.911Z,16.33
2023-05-07T00:20:57.664Z,16.43
2023-05-07T00:23:45.730Z,16.40
2023-05-07T00:26:33.221Z,16.64
2023-05-07T00:29:21.127Z,16.61
2023-05-07T00:32:09.289Z,16.51
2023-05-07T00:34:56.916Z,16.31
2023-05-07T00:37:44.576Z,16.23
2023-05-07T00:40:32.155Z,16.08
2023-05-07T00:43:19.637Z,16.15
2023-05-07T00:46:07.291Z,16.43
2023-05-07T00:48:55.070Z,16.60
2023-05-07T00:51:42.896Z,16.27
2023-05-07T00:54:30.492Z,16.17
2023-05-07T00:57:18.163Z,16.35
2023-05-07T01:00:06.387Z,16.53
2023-05-07T01:02:54.304Z,16.35
2023-05-07T01:05:43.470Z,16.34
2023-05-07T01:08:32.626Z,16.40
2023-05-07T01:11:23.141Z,16.42
2023-05-07T01:14:10.996Z,16.52
2023-05-07T01:16:59.803Z,16.53
2023-05-07T01:19:48.946Z,16.66
2023-05-07T01:22:38.367Z,16.54
2023-05-07T01:25:27.118Z,16.47
2023-05-07T01:28:18.205Z,16.75
2023-05-07T01:31:07.303Z,16.53
2023-05-07T01:33:58.108Z,16.60
2023-05-07T01:36:46.103Z,16.51
2023-05-07T01:39:34.143Z,16.36
2023-05-07T01:42:22.678Z,16.23
2023-05-07T01:45:10.879Z,16.36
2023-05-07T01:48:00.426Z,16.26
2023-05-07T01:50:48.545Z,16.37
2023-05-07T01:53:41.757Z,16.33
2023-05-07T01:56:29.631Z,16.24
2023-05-07T01:59:17.304Z,16.42
2023-05-07T02:02:04.896Z,16.31
2023-05-07T02:04:53.821Z,16.41
2023-05-07T02:07:42.855Z,16.47
2023-05-07T02:10:30.985Z,16.52
2023-05-07T02:13:18.600Z,16.60
2023-05-07T02:16:06.739Z,16.52
2023-05-07T02:18:54.481Z,16.55
2023-05-07T02:21:42.557Z,16.28
2023-05-07T02:24:31.010Z,16.49
2023-05-07T02:27:18.902Z,16.40
2023-05-07T02:30:07.215Z,16.53
2023-05-07T02:32:54.872Z,16.47
2023-05-07T02:35:43.634Z,16.49
2023-05-07T02:38:33.121Z,16.59
2023-05-07T02:41:21.551Z,16.25
2023-05-07T02:44:09.163Z,16.22
2023-05-07T02:46:56.980Z,16.33
2023-05-07T02:49:44.493Z,16.55
2023-05-07T02:52:31.945Z,16.66
2023-05-07T02:55:19.754Z,16.25
2023-05-07T02:58:07.184Z,16.28
2023-05-07T03:00:56.718Z,16.54
2023-05-07T03:03:52.591Z,16.36
2023-05-07T03:06:40.251Z,16.32
2023-05-07T03:09:27.769Z,16.56
2023-05-07T03:12:15.318Z,16.83
2023-05-07T03:15:03.046Z,16.50
2023-05-07T03:17:50.558Z,16.59
2023-05-07T03:20:38.295Z,16.49
2023-05-07T03:23:25.722Z,16.15
2023-05-07T03:26:13.158Z,16.18
2023-05-07T03:29:01.031Z,16.28
2023-05-07T03:31:48.848Z,15.89
2023-05-07T03:34:36.420Z,16.02
2023-05-07T03:37:24.229Z,16.43
2023-05-07T03:40:13.519Z,16.56
2023-05-07T03:43:14.558Z,16.74
2023-05-07T03:46:07.022Z,16.74
2023-05-07T03:48:54.662Z,16.72
2023-05-07T03:51:42.241Z,16.69
2023-05-07T03:54:31.450Z,16.64
2023-05-07T03:57:19.074Z,16.25
2023-05-07T04:00:07.750Z,16.35
2023-05-07T04:03:08.295Z,16.39
2023-05-07T04:05:56.114Z,16.15
2023-05-07T04:08:44.851Z,16.15
2023-05-07T04:11:32.451Z,16.05
2023-05-07T04:14:20.072Z,16.51
2023-05-07T04:17:08.139Z,16.24
2023-05-07T04:19:56.122Z,16.05
2023-05-07T04:22:43.769Z,16.43
2023-05-07T04:25:31.697Z,16.40
2023-05-07T04:28:27.742Z,16.53
2023-05-07T04:31:16.285Z,16.44
2023-05-07T04:34:05.123Z,16.22
2023-05-07T04:36:52.725Z,16.58
2023-05-07T04:39:40.488Z,16.40
2023-05-07T04:42:29.018Z,16.08
2023-05-07T04:45:17.201Z,16.43
2023-05-07T04:48:06.766Z,16.44
2023-05-07T04:50:55.352Z,16.01
2023-05-07T04:53:44.205Z,16.10
2023-05-07T04:56:32.245Z,16.04
2023-05-07T04:59:21.653Z,15.79
2023-05-07T05:02:11.500Z,15.67
2023-05-07T05:05:00.173Z,16.04
2023-05-07T05:07:47.776Z,15.86
2023-05-07T05:10:35.448Z,15.78
2023-05-07T05:13:23.267Z,15.68
2023-05-07T05:16:11.362Z,15.56
2023-05-07T05:19:00.718Z,15.64
2023-05-07T05:21:48.678Z,15.62
2023-05-07T05:24:36.308Z,15.92
2023-05-07T05:27:24.457Z,16.07
2023-05-07T05:30:13.278Z,15.90
2023-05-07T05:33:01.712Z,16.06
2023-05-07T05:35:50.778Z,16.23
2023-05-07T05:38:38.773Z,16.16
2023-05-07T05:41:26.583Z,16.15
2023-05-07T05:44:14.894Z,16.42
2023-05-07T05:47:04.281Z,16.23
2023-05-07T05:49:51.991Z,16.13
2023-05-07T05:52:39.745Z,16.22
2023-05-07T05:55:27.788Z,16.34
2023-05-07T05:58:16.302Z,16.26
2023-05-07T06:01:10.605Z,16.27
2023-05-07T06:03:58.864Z,16.30
2023-05-07T06:06:46.485Z,16.29
2023-05-07T06:09:34.203Z,16.27
2023-05-07T06:12:22.563Z,16.25
2023-05-07T06:15:10.941Z,16.34
2023-05-07T06:17:59.517Z,16.41
2023-05-07T06:20:47.452Z,16.47
2023-05-07T06:23:44.003Z,16.34
2023-05-07T06:26:32.194Z,16.52
2023-05-07T06:29:19.929Z,16.45
2023-05-07T06:32:11.769Z,16.47
2023-05-07T06:35:01.163Z,17.09
2023-05-07T06:37:48.814Z,17.35
2023-05-07T06:40:43.736Z,17.48
2023-05-07T06:43:31.267Z,17.64
2023-05-07T06:46:37.443Z,17.62
2023-05-07T06:49:27.056Z,17.51
2023-05-07T06:52:14.835Z,17.55
2023-05-07T06:55:03.175Z,17.62
2023-05-07T06:57:51.035Z,17.73
2023-05-07T07:00:40.057Z,17.82
2023-05-07T07:03:27.775Z,17.86
2023-05-07T07:06:16.726Z,17.82
2023-05-07T07:09:04.403Z,17.56
2023-05-07T07:11:52.351Z,17.67
2023-05-07T07:14:40.442Z,17.64
2023-05-07T07:17:28.334Z,17.63
2023-05-07T07:20:17.342Z,17.88
2023-05-07T07:23:06.530Z,17.94
2023-05-07T07:25:54.072Z,18.01
2023-05-07T07:28:46.092Z,17.97
2023-05-07T07:31:36.900Z,18.02
2023-05-07T07:34:24.481Z,17.87
2023-05-07T07:37:12.127Z,17.84
2023-05-07T07:39:59.824Z,17.98
2023-05-07T07:42:47.466Z,17.95
2023-05-07T07:45:35.884Z,17.97
2023-05-07T07:48:23.714Z,18.14
2023-05-07T07:51:11.625Z,18.28
2023-05-07T07:53:59.239Z,18.28
2023-05-07T07:56:46.839Z,18.14
2023-05-07T07:59:35.389Z,18.24
2023-05-07T08:02:23.134Z,18.42
2023-05-07T08:05:11.664Z,18.41
2023-05-07T08:07:59.621Z,18.38
2023-05-07T08:10:51.646Z,18.42
2023-05-07T08:13:46.922Z,18.21
2023-05-07T08:16:34.464Z,18.34
2023-05-07T08:19:23.186Z,18.51
2023-05-07T08:22:11.801Z,18.65
2023-05-07T08:25:01.116Z,18.73
2023-05-07T08:27:49.238Z,18.73
2023-05-07T08:30:37.314Z,18.84
2023-05-07T08:33:24.887Z,18.85
2023-05-07T08:36:12.724Z,18.81
2023-05-07T08:39:00.781Z,18.94
2023-05-07T08:41:49.373Z,19.04
2023-05-07T08:44:39.462Z,19.07
2023-05-07T08:47:28.578Z,19.05
2023-05-07T08:50:16.715Z,18.89
2023-05-07T08:53:05.525Z,19.11
2023-05-07T08:55:54.024Z,19.21
2023-05-07T08:58:42.412Z,19.25
2023-05-07T09:01:30.153Z,19.25
2023-05-07T09:04:18.668Z,19.44
2023-05-07T09:07:07.010Z,19.31
2023-05-07T09:10:03.063Z,19.38
2023-05-07T09:12:51.814Z,19.41
2023-05-07T09:15:39.614Z,19.50
2023-05-07T09:18:27.340Z,19.72
2023-05-07T09:21:16.928Z,19.65
2023-05-07T09:24:06.085Z,19.52
2023-05-07T09:27:04.176Z,19.42
2023-05-07T09:29:51.935Z,19.68
2023-05-07T09:32:40.119Z,19.46
2023-05-07T09:35:33.924Z,19.52
2023-05-07T09:38:27.674Z,19.61
2023-05-07T09:41:19.830Z,19.89
2023-05-07T09:44:29.903Z,20.02
2023-05-07T09:47:20.553Z,19.99
2023-05-07T09:50:12.752Z,20.01
2023-05-07T09:53:01.482Z,19.90
2023-05-07T09:55:49.597Z,20.04
2023-05-07T09:58:38.259Z,20.11
2023-05-07T10:01:26.535Z,20.35
2023-05-07T10:04:15.303Z,20.32
2023-05-07T10:07:05.702Z,20.49
2023-05-07T10:09:54.597Z,20.47
2023-05-07T10:12:51.914Z,20.26
2023-05-07T10:15:48.915Z,20.29
2023-05-07T10:18:38.262Z,20.40
2023-05-07T10:21:32.865Z,20.45
2023-05-07T10:24:28.232Z,20.52
2023-05-07T10:27:17.320Z,20.59
2023-05-07T10:30:19.977Z,20.41
2023-05-07T10:33:10.319Z,20.21
2023-05-07T10:36:01.644Z,19.77
2023-05-07T10:38:51.344Z,19.43
2023-05-07T10:41:39.906Z,19.73
2023-05-07T10:44:29.950Z,20.17
2023-05-07T10:47:22.211Z,20.07
2023-05-07T10:50:13.130Z,19.97
2023-05-07T10:53:17.728Z,19.54
2023-05-07T10:56:26.155Z,19.65
2023-05-07T10:59:22.310Z,19.60
2023-05-07T11:02:15.199Z,18.92
2023-05-07T11:05:24.403Z,18.80
2023-05-07T11:08:19.851Z,18.87
2023-05-07T11:11:14.723Z,18.54
2023-05-07T11:14:10.690Z,18.29
2023-05-07T11:17:11.138Z,18.37
2023-05-07T11:19:59.594Z,18.52
2023-05-07T11:23:02.992Z,18.46
2023-05-07T11:26:00.869Z,18.56
2023-05-07T11:28:48.705Z,19.14
2023-05-07T11:31:36.754Z,19.23
2023-05-07T11:34:26.282Z,19.17
2023-05-07T11:37:18.495Z,19.12
2023-05-07T11:40:19.387Z,19.16
2023-05-07T11:43:12.796Z,19.32
2023-05-07T11:46:08.555Z,19.68
2023-05-07T11:48:57.206Z,19.33
2023-05-07T11:51:45.974Z,19.24
2023-05-07T11:54:38.025Z,19.56
2023-05-07T11:57:25.891Z,19.25
2023-05-07T12:00:16.832Z,19.82
2023-05-07T12:03:07.354Z,20.00
2023-05-07T12:05:55.100Z,19.72
2023-05-07T12:08:45.292Z,20.21
2023-05-07T12:11:35.026Z,20.12
2023-05-07T12:14:22.898Z,20.46
2023-05-07T12:17:14.740Z,20.39
2023-05-07T12:20:02.540Z,20.02
2023-05-07T12:22:52.437Z,20.11
2023-05-07T12:25:40.942Z,20.11
2023-05-07T12:28:28.605Z,20.07
2023-05-07T12:31:17.080Z,19.76
2023-05-07T12:34:04.794Z,19.61
2023-05-07T12:36:52.348Z,19.78
2023-05-07T12:39:45.882Z,19.74
2023-05-07T12:42:37.701Z,19.78
2023-05-07T12:45:27.423Z,19.69
2023-05-07T12:48:14.989Z,19.66
2023-05-07T12:51:03.313Z,19.68
2023-05-07T12:53:50.998Z,19.50
2023-05-07T12:56:38.495Z,19.67
2023-05-07T12:59:40.957Z,19.55
2023-05-07T13:02:35.760Z,19.54
2023-05-07T13:05:23.446Z,19.39
2023-05-07T13:08:10.992Z,19.74
2023-05-07T13:11:00.165Z,19.60
2023-05-07T13:13:47.650Z,19.34
2023-05-07T13:16:35.155Z,19.60
2023-05-07T13:19:23.059Z,19.68
2023-05-07T13:22:11.037Z,19.29
2023-05-07T13:24:58.602Z,18.76
2023-05-07T13:27:46.752Z,18.73
2023-05-07T13:30:37.294Z,18.41
2023-05-07T13:33:25.189Z,17.80
2023-05-07T13:36:12.651Z,17.38
2023-05-07T13:39:01.473Z,17.41
2023-05-07T13:41:49.020Z,17.79
2023-05-07T13:44:36.692Z,17.26
2023-05-07T13:47:24.833Z,17.54
2023-05-07T13:50:14.585Z,17.50
2023-05-07T13:53:02.193Z,17.56
2023-05-07T13:55:49.940Z,17.52
2023-05-07T13:58:42.225Z,17.50
2023-05-07T14:01:35.865Z,17.11
2023-05-07T14:04:23.503Z,17.08
2023-05-07T14:07:11.324Z,17.55
2023-05-07T14:09:58.874Z,17.78
2023-05-07T14:12:46.597Z,17.73
2023-05-07T14:15:35.587Z,17.82
2023-05-07T14:18:23.257Z,17.94
2023-05-07T14:21:11.169Z,18.23
2023-05-07T14:23:58.934Z,18.16
2023-05-07T14:26:46.624Z,18.42
2023-05-07T14:29:34.323Z,17.98
2023-05-07T14:32:22.559Z,18.08
2023-05-07T14:35:10.140Z,17.90
2023-05-07T14:37:57.862Z,18.26
2023-05-07T14:40:46.419Z,18.59
2023-05-07T14:43:34.126Z,18.30
2023-05-07T14:46:21.798Z,18.82
2023-05-07T14:49:17.650Z,18.64
2023-05-07T14:52:07.208Z,19.11
2023-05-07T14:54:54.853Z,19.50
2023-05-07T14:57:42.438Z,19.93
2023-05-07T15:00:30.052Z,20.30
2023-05-07T15:03:18.279Z,20.58
2023-05-07T15:06:06.552Z,20.29
2023-05-07T15:08:54.041Z,18.18
2023-05-07T15:11:41.718Z,17.86
2023-05-07T15:14:29.298Z,17.23
2023-05-07T15:17:16.950Z,16.43
2023-05-07T15:20:05.812Z,16.49
2023-05-07T15:22:54.064Z,16.62
2023-05-07T15:25:41.876Z,16.54
2023-05-07T15:28:29.795Z,16.43
2023-05-07T15:31:19.472Z,16.64
2023-05-07T15:34:07.366Z,16.90
2023-05-07T15:36:57.740Z,16.83
2023-05-07T15:39:45.810Z,16.66
2023-05-07T15:42:34.270Z,16.84
2023-05-07T15:45:22.164Z,16.50
2023-05-07T15:48:10.855Z,16.68
2023-05-07T15:50:59.861Z,16.99
2023-05-07T15:53:47.646Z,17.26
2023-05-07T15:56:35.287Z,17.54
2023-05-07T15:59:23.793Z,18.14
2023-05-07T16:02:11.429Z,17.65
2023-05-07T16:04:59.063Z,17.41
2023-05-07T16:07:46.603Z,17.96
2023-05-07T16:10:34.145Z,18.29
2023-05-07T16:13:21.814Z,18.13
2023-05-07T16:16:09.587Z,18.44
2023-05-07T16:18:57.580Z,18.98
2023-05-07T16:21:45.192Z,18.42
2023-05-07T16:24:33.367Z,18.22
2023-05-07T16:27:21.009Z,18.53
2023-05-07T16:30:09.099Z,18.02
2023-05-07T16:32:56.793Z,18.38
2023-05-07T16:35:47.643Z,18.49
2023-05-07T16:38:35.197Z,18.52
2023-05-07T16:41:23.037Z,18.76
2023-05-07T16:44:11.243Z,18.79
2023-05-07T16:46:59.194Z,18.86
2023-05-07T16:49:47.073Z,18.59
2023-05-07T16:52:34.954Z,17.92
2023-05-07T16:55:22.753Z,18.06
2023-05-07T16:58:11.760Z,17.99
2023-05-07T17:00:59.632Z,18.27
2023-05-07T17:03:47.384Z,17.84
2023-05-07T17:06:34.906Z,17.49
2023-05-07T17:09:22.934Z,17.60
2023-05-07T17:12:10.439Z,18.12
2023-05-07T17:14:57.874Z,18.07
2023-05-07T17:17:45.543Z,18.04
2023-05-07T17:20:33.208Z,17.67
2023-05-07T17:23:20.713Z,17.27
2023-05-07T17:26:13.330Z,17.27
2023-05-07T17:29:00.864Z,17.53
2023-05-07T17:31:48.644Z,17.65
2023-05-07T17:34:36.412Z,17.35
2023-05-07T17:37:24.294Z,17.78
2023-05-07T17:40:12.401Z,17.51
2023-05-07T17:43:00.343Z,17.32
2023-05-07T17:45:48.398Z,17.56
2023-05-07T17:48:36.370Z,17.16
2023-05-07T17:51:26.011Z,17.21
2023-05-07T17:54:13.644Z,17.19
2023-05-07T17:57:01.923Z,17.01
2023-05-07T17:59:52.035Z,17.36
2023-05-07T18:02:41.184Z,17.14
2023-05-07T18:05:29.500Z,17.00
2023-05-07T18:08:17.080Z,17.01
2023-05-07T18:11:05.848Z,16.98
2023-05-07T18:13:53.469Z,16.61
2023-05-07T18:16:41.129Z,16.60
2023-05-07T18:19:28.776Z,16.76
2023-05-07T18:22:16.463Z,16.98
2023-05-07T18:25:15.025Z,17.02
2023-05-07T18:28:02.737Z,17.10
2023-05-07T18:30:50.215Z,17.26
2023-05-07T18:33:38.003Z,17.49
2023-05-07T18:36:26.909Z,17.46
2023-05-07T18:39:14.353Z,17.12
2023-05-07T18:42:01.903Z,16.51
2023-05-07T18:44:50.286Z,16.51
2023-05-07T18:47:40.830Z,16.76
2023-05-07T18:50:28.374Z,16.50
2023-05-07T18:53:16.002Z,16.49
2023-05-07T18:56:03.600Z,16.62
2023-05-07T18:58:51.060Z,16.64
2023-05-07T19:01:38.832Z,16.53
2023-05-07T19:04:26.560Z,16.43
2023-05-07T19:07:14.317Z,16.41
2023-05-07T19:10:19.779Z,16.39
2023-05-07T19:13:07.536Z,16.41
2023-05-07T19:15:55.393Z,16.61
2023-05-07T19:18:43.494Z,16.60
2023-05-07T19:21:31.819Z,16.78
2023-05-07T19:24:19.361Z,16.58
2023-05-07T19:27:07.391Z,16.45
2023-05-07T19:29:54.950Z,16.49
2023-05-07T19:32:42.632Z,16.35
2023-05-07T19:35:31.391Z,16.36
2023-05-07T19:38:19.144Z,16.62
2023-05-07T19:41:06.836Z,16.45
2023-05-07T19:43:54.357Z,16.20
2023-05-07T19:46:45.023Z,16.20
2023-05-07T19:49:32.795Z,16.22
2023-05-07T19:52:20.405Z,15.95
2023-05-07T19:55:11.202Z,16.20
2023-05-07T19:57:59.126Z,15.97
2023-05-07T20:00:46.687Z,16.29
2023-05-07T20:03:34.583Z,15.95
2023-05-07T20:06:23.438Z,15.84
2023-05-07T20:09:12.775Z,15.63
2023-05-07T20:12:00.701Z,15.76
2023-05-07T20:14:48.144Z,15.59
2023-05-07T20:17:35.742Z,15.53
2023-05-07T20:20:24.619Z,15.64
2023-05-07T20:23:13.318Z,15.65
2023-05-07T20:26:00.947Z,15.89
2023-05-07T20:28:48.618Z,16.05
2023-05-07T20:31:36.295Z,15.89
2023-05-07T20:34:23.928Z,16.02
2023-05-07T20:37:14.408Z,16.04
2023-05-07T20:40:03.105Z,16.31
2023-05-07T20:42:51.236Z,16.04
2023-05-07T20:45:38.750Z,16.57
2023-05-07T20:48:30.507Z,15.89
2023-05-07T20:51:18.120Z,15.93
2023-05-07T20:54:08.536Z,15.61
2023-05-07T20:56:57.372Z,15.92
2023-05-07T20:59:45.061Z,15.84
2023-05-07T21:02:32.568Z,15.82
2023-05-07T21:05:20.205Z,15.49
2023-05-07T21:08:07.707Z,15.30
2023-05-07T21:10:55.397Z,15.25
2023-05-07T21:13:42.961Z,15.20
2023-05-07T21:16:30.525Z,15.59
2023-05-07T21:19:18.043Z,15.38
2023-05-07T21:22:06.793Z,15.43
2023-05-07T21:24:54.245Z,15.37
2023-05-07T21:27:42.001Z,15.12
2023-05-07T21:30:29.624Z,15.01
2023-05-07T21:33:17.178Z,15.02
2023-05-07T21:36:06.003Z,15.21
2023-05-07T21:38:53.841Z,15.55
2023-05-07T21:41:41.344Z,15.33
2023-05-07T21:44:29.954Z,15.48
2023-05-07T21:47:17.456Z,15.73
2023-05-07T21:50:05.477Z,15.31
2023-05-07T21:52:53.158Z,15.57
2023-05-07T21:55:40.676Z,15.22
2023-05-07T21:58:29.432Z,15.26
2023-05-07T22:01:16.973Z,15.23
2023-05-07T22:04:04.874Z,15.19
2023-05-07T22:06:52.785Z,15.25
2023-05-07T22:09:40.269Z,15.04
2023-05-07T22:12:27.838Z,15.92
2023-05-07T22:15:15.354Z,16.26
2023-05-07T22:18:02.909Z,16.40
2023-05-07T22:20:51.776Z,16.89
2023-05-07T22:23:39.296Z,17.20
2023-05-07T22:26:27.354Z,16.85
2023-05-07T22:29:15.412Z,16.96
2023-05-07T22:32:03.596Z,17.18
2023-05-07T22:34:51.300Z,16.38
2023-05-07T22:37:38.845Z,16.78
2023-05-07T22:40:26.346Z,16.56
2023-05-07T22:43:13.872Z,16.13
2023-05-07T22:46:01.978Z,15.68
2023-05-07T22:48:49.651Z,15.25
2023-05-07T22:51:37.238Z,15.45
2023-05-07T22:54:25.663Z,16.21
2023-05-07T22:57:13.329Z,15.87
2023-05-07T23:00:01.012Z,15.32
2023-05-07T23:02:49.001Z,15.64
2023-05-07T23:05:37.288Z,15.13
2023-05-07T23:08:24.952Z,14.70
2023-05-07T23:11:12.760Z,14.53
2023-05-07T23:14:00.852Z,14.72
2023-05-07T23:16:48.752Z,15.51
2023-05-07T23:19:37.066Z,15.30
2023-05-07T23:22:24.702Z,15.25
2023-05-07T23:25:12.228Z,15.67
2023-05-07T23:27:59.736Z,15.19
2023-05-07T23:30:47.394Z,15.03
2023-05-07T23:33:35.200Z,14.79
2023-05-07T23:36:22.768Z,14.79
2023-05-07T23:39:10.514Z,14.52
2023-05-07T23:41:57.979Z,14.93
2023-05-07T23:44:45.416Z,15.20
2023-05-07T23:47:33.007Z,15.59
2023-05-07T23:50:22.955Z,14.99
2023-05-07T23:53:10.832Z,14.54
2023-05-07T23:55:58.446Z,14.51
2023-05-07T23:58:46.150Z,15.27
